Time;durP1;ratioP1;P1;durP2;ratioP2;P2;SDS_P1;SDS_P2;PMS_P1;PMS_P2;Temp;Humidity;BMP_temperature;BMP_pressure;BME280_temperature;BME280_humidity;BME280_pressure;Samples;Min_cycle;Max_cycle;Signal;HPM_P1;HPM_P2
2023/04/07 00:01:35;;;;;;;10.38;4.25;;;;;;;9.05;100.00;101574.88;5040619;28;20051;-64
2023/04/07 00:04:01;;;;;;;14.15;4.47;;;;;;;9.05;100.00;101579.25;5046170;28;20059;-64
2023/04/07 00:06:27;;;;;;;9.60;4.55;;;;;;;9.09;100.00;101575.66;5047092;28;20460;-65
2023/04/07 00:08:53;;;;;;;11.60;4.30;;;;;;;9.11;100.00;101573.91;5047682;28;20125;-64
2023/04/07 00:11:18;;;;;;;13.18;4.32;;;;;;;9.08;100.00;101574.81;5047307;28;20113;-64
2023/04/07 00:13:44;;;;;;;8.90;4.63;;;;;;;9.08;100.00;101580.09;5049102;28;20033;-66
2023/04/07 00:16:09;;;;;;;12.40;4.47;;;;;;;9.08;100.00;101580.09;5050688;28;20360;-65
2023/04/07 00:18:35;;;;;;;9.57;3.50;;;;;;;9.01;100.00;101588.97;5049955;28;20037;-64
2023/04/07 00:21:00;;;;;;;8.55;3.78;;;;;;;9.06;100.00;101592.38;5032482;28;20091;-64
2023/04/07 00:23:26;;;;;;;14.50;3.50;;;;;;;9.08;100.00;101594.97;5051036;28;20539;-65
2023/04/07 00:25:51;;;;;;;12.68;4.18;;;;;;;9.13;100.00;101600.16;5050436;28;20047;-65
2023/04/07 00:28:16;;;;;;;12.80;3.60;;;;;;;9.13;100.00;101600.16;5050757;28;20021;-65
2023/04/07 00:30:42;;;;;;;11.85;4.28;;;;;;;9.14;100.00;101596.63;5050885;28;20057;-65
2023/04/07 00:33:07;;;;;;;8.82;4.00;;;;;;;9.14;100.00;101597.50;5050366;28;20071;-65
2023/04/07 00:35:32;;;;;;;11.02;3.50;;;;;;;9.08;100.00;101602.88;5051532;28;20021;-65
2023/04/07 00:37:58;;;;;;;11.93;3.00;;;;;;;9.10;100.00;101599.31;5051256;28;20519;-65
2023/04/07 00:40:23;;;;;;;18.33;4.22;;;;;;;9.08;100.00;101603.75;5040563;28;20508;-66
2023/04/07 00:42:49;;;;;;;13.25;3.55;;;;;;;9.06;100.00;101596.78;5048995;28;20029;-65
2023/04/07 00:45:14;;;;;;;10.80;3.60;;;;;;;9.04;100.00;101599.44;5051264;28;20692;-66
2023/04/07 00:47:40;;;;;;;14.63;3.53;;;;;;;8.95;100.00;101592.56;5063042;28;20471;-65
2023/04/07 00:50:05;;;;;;;15.68;3.90;;;;;;;8.87;100.00;101589.16;5070751;28;20063;-64
2023/04/07 00:52:32;;;;;;;15.68;4.55;;;;;;;8.79;100.00;101594.50;5052895;28;20025;-67
2023/04/07 00:54:58;;;;;;;13.73;3.60;;;;;;;8.68;100.00;101601.69;5071572;28;20757;-65
2023/04/07 00:57:24;;;;;;;12.35;3.88;;;;;;;8.58;100.00;101599.19;5070936;28;20526;-64
2023/04/07 00:59:50;;;;;;;19.98;4.10;;;;;;;8.48;100.00;101600.16;5054707;28;20120;-66
2023/04/07 01:02:18;;;;;;;11.10;4.05;;;;;;;8.46;100.00;101591.44;5031737;28;20036;-66
2023/04/07 01:04:50;;;;;;;13.63;3.75;;;;;;;8.33;100.00;101596.84;5049191;28;20056;-66
2023/04/07 01:07:35;;;;;;;17.10;3.35;;;;;;;8.22;100.00;101588.25;5050175;28;20037;-65
2023/04/07 01:10:05;;;;;;;11.13;3.22;;;;;;;8.13;100.00;101593.59;5050016;28;20027;-65
2023/04/07 01:12:51;;;;;;;20.25;3.30;;;;;;;8.02;100.00;101594.59;5049410;28;20100;-65
2023/04/07 01:15:17;;;;;;;18.60;3.88;;;;;;;7.96;100.00;101592.03;5049426;28;20049;-65
2023/04/07 01:17:48;;;;;;;19.05;3.40;;;;;;;7.91;100.00;101588.56;5048307;28;20033;-65
2023/04/07 01:20:16;;;;;;;19.48;3.03;;;;;;;7.92;100.00;101592.94;5039334;28;20447;-66
2023/04/07 01:22:45;;;;;;;18.38;3.97;;;;;;;7.83;100.00;101591.28;5035895;28;20082;-65
2023/04/07 01:25:22;;;;;;;13.93;3.15;;;;;;;7.88;100.00;101599.97;5031348;28;20033;-65
2023/04/07 01:27:51;;;;;;;14.27;3.25;;;;;;;7.79;100.00;101592.19;5049420;28;20429;-65
2023/04/07 01:30:17;;;;;;;15.68;3.30;;;;;;;7.72;100.00;101599.25;5049740;28;20021;-65
2023/04/07 01:32:44;;;;;;;15.55;3.70;;;;;;;7.70;100.00;101596.66;5031644;28;20100;-66
2023/04/07 01:35:12;;;;;;;21.30;3.85;;;;;;;7.77;100.00;101602.69;5031861;28;20727;-66
2023/04/07 01:37:38;;;;;;;15.30;3.67;;;;;;;7.75;100.00;101609.72;5049908;28;20035;-67
2023/04/07 01:40:05;;;;;;;26.77;3.63;;;;;;;7.81;100.00;101609.66;5022600;28;20472;-65
2023/04/07 01:42:32;;;;;;;18.17;3.42;;;;;;;7.92;100.00;101606.91;5012192;28;20025;-65
2023/04/07 01:44:59;;;;;;;15.73;3.85;;;;;;;7.97;100.00;101609.50;5028966;28;20036;-69
2023/04/07 01:47:29;;;;;;;17.50;4.25;;;;;;;8.03;100.00;101608.56;5027790;28;20091;-68
2023/04/07 01:49:56;;;;;;;22.45;3.45;;;;;;;8.11;100.00;101617.22;5029373;28;20025;-66
2023/04/07 01:52:21;;;;;;;21.85;4.18;;;;;;;8.15;100.00;101612.81;5011157;28;20022;-64
2023/04/07 01:54:47;;;;;;;17.90;3.60;;;;;;;8.22;100.00;101614.50;5029397;28;20476;-68
2023/04/07 01:57:12;;;;;;;26.55;4.43;;;;;;;8.21;100.00;101613.63;5011559;28;20022;-65
2023/04/07 01:59:38;;;;;;;18.17;3.90;;;;;;;8.30;100.00;101607.38;5031038;28;20115;-64
2023/04/07 02:02:03;;;;;;;16.42;3.58;;;;;;;8.37;100.00;101607.31;5029899;28;20112;-65
2023/04/07 02:04:30;;;;;;;26.92;4.07;;;;;;;8.36;100.00;101605.59;5028763;28;20069;-64
2023/04/07 02:07:01;;;;;;;16.50;4.00;;;;;;;8.39;100.00;101601.16;5011363;28;20025;-64
2023/04/07 02:09:29;;;;;;;23.33;4.20;;;;;;;8.40;100.00;101613.38;5028478;28;20025;-65
2023/04/07 02:11:57;;;;;;;22.80;4.45;;;;;;;8.40;100.00;101602.03;5029476;28;20022;-64
2023/04/07 02:14:23;;;;;;;18.60;3.90;;;;;;;8.44;100.00;101604.59;5011771;28;20021;-65
2023/04/07 02:16:49;;;;;;;20.85;4.00;;;;;;;8.46;100.00;101613.31;5028619;28;20802;-65
2023/04/07 02:19:15;;;;;;;17.67;4.30;;;;;;;8.50;100.00;101608.91;5015910;28;20021;-65
2023/04/07 02:21:41;;;;;;;16.90;4.35;;;;;;;8.39;100.00;101611.66;5029038;28;20109;-64
2023/04/07 02:24:06;;;;;;;17.88;4.03;;;;;;;8.44;100.00;101604.59;5010436;28;20040;-66
2023/04/07 02:26:35;;;;;;;15.10;3.70;;;;;;;8.46;100.00;101602.81;5028474;28;20025;-65
2023/04/07 02:29:01;;;;;;;20.40;3.70;;;;;;;8.55;100.00;101607.09;5010783;28;20022;-66
2023/04/07 02:31:27;;;;;;;12.57;4.20;;;;;;;8.53;100.00;101602.72;5028469;28;20037;-64
2023/04/07 02:33:52;;;;;;;22.48;4.35;;;;;;;8.52;100.00;101607.09;5029051;28;20032;-64
2023/04/07 02:36:18;;;;;;;18.95;3.90;;;;;;;8.45;100.00;101611.59;5027631;28;20021;-65
2023/04/07 02:38:43;;;;;;;17.05;4.25;;;;;;;8.42;100.00;101608.09;5039217;28;20063;-65
2023/04/07 02:41:08;;;;;;;16.58;4.13;;;;;;;8.46;100.00;101607.22;5045676;28;20459;-66
2023/04/07 02:43:34;;;;;;;16.58;4.15;;;;;;;8.42;100.00;101609.00;5047621;28;20203;-65
2023/04/07 02:46:00;;;;;;;15.05;3.72;;;;;;;8.48;100.00;101610.66;5048133;28;20021;-66
2023/04/07 02:48:25;;;;;;;19.25;4.55;;;;;;;8.50;100.00;101622.03;5046531;28;20044;-66
2023/04/07 02:50:50;;;;;;;24.60;4.13;;;;;;;8.57;100.00;101615.84;5040565;28;20130;-66
2023/04/07 02:53:15;;;;;;;15.52;4.47;;;;;;;8.60;100.00;101614.94;5027936;28;20033;-66
2023/04/07 02:55:41;;;;;;;18.75;4.32;;;;;;;8.62;100.00;101609.66;5028272;28;20032;-65
2023/04/07 02:58:06;;;;;;;22.50;7.35;;;;;;;8.62;100.00;101617.53;5028696;28;20026;-66
2023/04/07 03:00:32;;;;;;;11.32;4.22;;;;;;;8.69;100.00;101614.81;5028717;28;20021;-64
2023/04/07 03:02:58;;;;;;;9.07;3.47;;;;;;;8.68;100.00;101618.34;5028502;28;20021;-65
2023/04/07 03:05:24;;;;;;;22.40;4.15;;;;;;;8.70;100.00;101615.69;5028683;28;20172;-65
2023/04/07 03:07:50;;;;;;;13.32;3.30;;;;;;;8.70;100.00;101618.31;5014662;28;20139;-65
2023/04/07 03:10:15;;;;;;;17.67;3.72;;;;;;;8.66;100.00;101612.22;5047997;28;20110;-66
2023/04/07 03:12:40;;;;;;;12.68;3.20;;;;;;;8.64;100.00;101615.75;5048351;28;20029;-64
2023/04/07 03:15:06;;;;;;;11.18;3.50;;;;;;;8.65;100.00;101617.50;5048632;28;20017;-64
2023/04/07 03:17:32;;;;;;;16.40;3.13;;;;;;;8.68;100.00;101622.72;5047853;28;20110;-65
2023/04/07 03:19:57;;;;;;;20.33;3.45;;;;;;;8.71;100.00;101622.66;5048950;28;20021;-65
2023/04/07 03:22:23;;;;;;;12.55;3.10;;;;;;;8.73;100.00;101620.88;5048409;28;20070;-64
2023/04/07 03:24:48;;;;;;;17.17;3.50;;;;;;;8.70;100.00;101613.91;5048509;28;20052;-65
2023/04/07 03:27:15;;;;;;;13.60;3.58;;;;;;;8.76;100.00;101618.22;5021788;28;20455;-66
2023/04/07 03:29:40;;;;;;;24.25;4.00;;;;;;;8.66;100.00;101620.09;5029070;28;20026;-65
2023/04/07 03:32:05;;;;;;;10.75;3.70;;;;;;;8.73;100.00;101620.88;5031224;28;20028;-65
2023/04/07 03:34:31;;;;;;;14.05;3.72;;;;;;;8.71;100.00;101612.16;5047552;28;20045;-64
2023/04/07 03:36:56;;;;;;;12.25;3.83;;;;;;;8.70;100.00;101615.69;5048129;28;20044;-65
2023/04/07 03:39:21;;;;;;;13.48;4.40;;;;;;;8.68;100.00;101617.47;5047851;28;20028;-65
2023/04/07 03:41:47;;;;;;;23.77;7.55;;;;;;;8.72;100.00;101616.50;5047567;28;20033;-65
2023/04/07 03:44:12;;;;;;;16.08;4.15;;;;;;;8.75;100.00;101619.09;5037533;28;20765;-64
2023/04/07 03:46:37;;;;;;;17.08;6.00;;;;;;;8.76;100.00;101626.09;5027160;28;20167;-66
2023/04/07 03:49:03;;;;;;;18.30;6.07;;;;;;;8.73;100.00;101618.25;5038242;28;20672;-65
2023/04/07 03:51:28;;;;;;;17.65;6.00;;;;;;;8.70;100.00;101616.53;5047277;28;20036;-64
2023/04/07 03:53:53;;;;;;;16.42;6.15;;;;;;;8.72;100.00;101620.03;5047756;28;20023;-66
2023/04/07 03:56:19;;;;;;;14.07;5.97;;;;;;;8.68;100.00;101623.59;5045461;28;20048;-66
2023/04/07 03:58:45;;;;;;;24.05;6.97;;;;;;;8.69;100.00;101622.69;5037296;28;20100;-63
2023/04/07 04:01:10;;;;;;;15.43;5.57;;;;;;;8.73;100.00;101631.38;5029252;28;20086;-65
2023/04/07 04:03:36;;;;;;;18.42;4.90;;;;;;;8.76;100.00;101627.88;5047337;28;20056;-65
2023/04/07 04:06:01;;;;;;;16.67;4.57;;;;;;;8.76;100.00;101626.09;5048288;28;20460;-65
2023/04/07 04:08:26;;;;;;;9.63;4.28;;;;;;;8.79;100.00;101627.81;5047699;28;20013;-65
2023/04/07 04:10:52;;;;;;;5.85;3.03;;;;;;;8.78;100.00;101626.94;5029716;28;20021;-64
2023/04/07 04:13:17;;;;;;;14.35;4.68;;;;;;;8.82;100.00;101626.00;5046611;28;20045;-65
2023/04/07 04:15:43;;;;;;;5.60;3.35;;;;;;;8.85;100.00;101636.47;5046558;28;20024;-64
2023/04/07 04:18:08;;;;;;;10.00;3.20;;;;;;;8.85;100.00;101641.75;5046608;28;20387;-64
2023/04/07 04:20:33;;;;;;;9.85;3.05;;;;;;;8.79;100.00;101647.06;5047150;28;20078;-65
2023/04/07 04:22:59;;;;;;;9.85;3.63;;;;;;;8.77;100.00;101651.50;5047422;28;20508;-65
2023/04/07 04:25:24;;;;;;;7.78;2.90;;;;;;;8.74;100.00;101648.91;5033395;28;20028;-65
2023/04/07 04:27:49;;;;;;;8.38;2.70;;;;;;;8.72;100.00;101645.41;5029489;28;20067;-65
2023/04/07 04:30:15;;;;;;;9.63;2.70;;;;;;;8.76;100.00;101644.47;5046744;28;20506;-65
2023/04/07 04:32:40;;;;;;;10.85;2.25;;;;;;;8.72;100.00;101650.69;5029161;28;20475;-65
2023/04/07 04:35:06;;;;;;;10.77;2.58;;;;;;;8.79;100.00;101651.47;5034489;28;20055;-65
2023/04/07 04:37:31;;;;;;;9.27;2.30;;;;;;;8.78;100.00;101642.72;5047451;28;20044;-65
2023/04/07 04:39:57;;;;;;;10.02;2.70;;;;;;;8.82;100.00;101652.28;5047548;28;20107;-65
2023/04/07 04:42:22;;;;;;;8.85;2.33;;;;;;;8.78;100.00;101640.09;5048088;28;20053;-63
2023/04/07 04:44:47;;;;;;;13.13;3.20;;;;;;;8.79;100.00;101647.06;5048351;28;20017;-63
2023/04/07 04:47:13;;;;;;;9.13;2.50;;;;;;;8.81;100.00;101645.31;5047214;28;20060;-63
2023/04/07 04:49:38;;;;;;;6.30;2.58;;;;;;;8.83;100.00;101648.78;5046912;28;20029;-64
2023/04/07 04:52:04;;;;;;;11.88;2.90;;;;;;;8.82;100.00;101657.53;5011894;28;20682;-64
2023/04/07 04:54:29;;;;;;;10.07;2.70;;;;;;;8.89;100.00;101660.09;5047524;28;20124;-64
2023/04/07 04:56:56;;;;;;;12.38;3.40;;;;;;;8.85;100.00;101659.25;5046544;28;20063;-63
2023/04/07 04:59:22;;;;;;;7.22;3.20;;;;;;;8.81;100.00;101661.06;4993718;28;20038;-65
2023/04/07 05:01:47;;;;;;;12.90;3.28;;;;;;;8.78;100.00;101661.13;5039885;28;20017;-64
2023/04/07 05:04:12;;;;;;;9.65;3.03;;;;;;;8.82;100.00;101662.81;5050633;28;20040;-64
2023/04/07 05:06:38;;;;;;;10.63;3.10;;;;;;;8.82;100.00;101656.69;5049660;28;20029;-63
2023/04/07 05:09:03;;;;;;;12.43;3.80;;;;;;;8.80;100.00;101659.34;5049534;28;20051;-65
2023/04/07 05:11:28;;;;;;;13.38;3.95;;;;;;;8.82;100.00;101660.19;5016182;28;20402;-64
2023/04/07 05:13:54;;;;;;;13.02;3.20;;;;;;;8.83;100.00;101661.06;5032084;28;20475;-64
2023/04/07 05:16:19;;;;;;;12.45;3.67;;;;;;;8.80;100.00;101668.97;5029533;28;20035;-65
2023/04/07 05:18:45;;;;;;;9.60;2.83;;;;;;;8.83;100.00;101666.31;5047303;28;20481;-63
2023/04/07 05:21:10;;;;;;;22.05;3.30;;;;;;;8.80;100.00;101669.84;5048747;28;20037;-65
2023/04/07 05:23:35;;;;;;;16.33;3.25;;;;;;;8.78;100.00;101674.25;5048331;28;20082;-65
2023/04/07 05:26:01;;;;;;;17.33;3.00;;;;;;;8.84;100.00;101670.66;5049026;28;20092;-64
2023/04/07 05:28:26;;;;;;;9.75;2.75;;;;;;;8.85;100.00;101675.91;5046745;28;20029;-64
2023/04/07 05:30:52;;;;;;;10.20;2.70;;;;;;;8.82;100.00;101681.19;5036963;28;20479;-65
2023/04/07 05:33:17;;;;;;;9.25;2.50;;;;;;;8.84;100.00;101682.06;5029191;28;20099;-64
2023/04/07 05:35:45;;;;;;;10.30;2.38;;;;;;;8.89;100.00;101683.75;5028708;28;20025;-64
2023/04/07 05:38:11;;;;;;;13.57;2.80;;;;;;;8.87;100.00;101691.66;5029309;28;20013;-65
2023/04/07 05:40:37;;;;;;;17.95;2.67;;;;;;;8.91;100.00;101687.25;5030039;28;20029;-65
2023/04/07 05:43:02;;;;;;;16.40;3.03;;;;;;;8.85;100.00;101688.16;5030731;28;20029;-65
2023/04/07 05:45:27;;;;;;;10.38;2.25;;;;;;;8.86;100.00;101689.94;5014851;28;20431;-66
2023/04/07 05:47:53;;;;;;;7.28;2.53;;;;;;;8.90;100.00;101688.09;5048846;28;20032;-63
2023/04/07 05:50:18;;;;;;;9.00;2.42;;;;;;;8.95;100.00;101688.94;5048172;28;20063;-65
2023/04/07 05:52:43;;;;;;;15.23;2.63;;;;;;;9.00;100.00;101687.09;5049815;28;20467;-65
2023/04/07 05:55:09;;;;;;;6.70;2.47;;;;;;;8.98;100.00;101688.91;5049005;28;20021;-63
2023/04/07 05:57:34;;;;;;;14.80;2.33;;;;;;;8.91;100.00;101693.34;5045889;28;20032;-66
2023/04/07 06:00:00;;;;;;;10.20;2.00;;;;;;;8.94;100.00;101697.72;5035975;28;20483;-66
2023/04/07 06:02:25;;;;;;;9.45;2.28;;;;;;;8.99;100.00;101701.13;5010718;28;20159;-64
2023/04/07 06:04:50;;;;;;;5.05;1.67;;;;;;;9.09;100.00;101702.75;5011167;28;20065;-63
2023/04/07 06:07:16;;;;;;;11.65;2.13;;;;;;;9.15;100.00;101717.56;5029341;28;20472;-63
2023/04/07 06:09:41;;;;;;;7.70;1.85;;;;;;;9.21;100.00;101709.59;5029010;28;20135;-65
2023/04/07 06:12:08;;;;;;;6.82;1.92;;;;;;;9.32;100.00;101714.72;5029134;28;20031;-63
2023/04/07 06:14:33;;;;;;;7.55;2.13;;;;;;;9.39;100.00;101714.63;5035115;28;20031;-63
2023/04/07 06:16:59;;;;;;;9.52;2.00;;;;;;;9.46;100.00;101711.00;5037498;28;20029;-65
2023/04/07 06:19:26;;;;;;;9.38;2.22;;;;;;;9.45;100.00;101712.75;5035526;28;20036;-64
2023/04/07 06:21:51;;;;;;;8.32;2.13;;;;;;;9.53;100.00;101703.88;5028290;28;20494;-64
2023/04/07 06:24:17;;;;;;;5.03;1.63;;;;;;;9.50;100.00;101703.91;5046967;28;20029;-64
2023/04/07 06:26:43;;;;;;;16.13;2.15;;;;;;;9.65;100.00;101710.72;5047267;28;20249;-64
2023/04/07 06:29:08;;;;;;;9.05;2.28;;;;;;;9.70;100.00;101706.25;5046692;28;20174;-65
2023/04/07 06:31:34;;;;;;;10.18;1.92;;;;;;;9.79;100.00;101718.38;5028073;28;20139;-64
2023/04/07 06:33:59;;;;;;;8.63;1.60;;;;;;;9.76;100.00;101731.59;5047111;28;20126;-65
2023/04/07 06:36:26;;;;;;;12.02;1.77;;;;;;;9.67;100.00;101720.34;5041705;28;20387;-64
2023/04/07 06:38:51;;;;;;;6.68;1.65;;;;;;;9.70;100.00;101729.94;5034698;28;20119;-65
2023/04/07 06:41:17;;;;;;;12.15;1.77;;;;;;;9.77;100.00;101726.31;5026085;28;20413;-64
2023/04/07 06:43:48;;;;;;;7.50;1.77;;;;;;;9.88;100.00;101722.63;5045636;28;20029;-64
2023/04/07 06:46:13;;;;;;;10.57;1.90;;;;;;;9.90;100.00;101734.88;5041868;28;20029;-65
2023/04/07 06:48:38;;;;;;;5.78;1.50;;;;;;;9.86;100.00;101730.56;5041713;28;20013;-65
2023/04/07 06:51:04;;;;;;;9.43;1.55;;;;;;;9.86;100.00;101736.69;5045243;28;20025;-63
2023/04/07 06:53:29;;;;;;;12.75;2.35;;;;;;;9.95;100.00;101740.06;5046497;28;20071;-65
2023/04/07 06:56:09;;;;;;;13.63;2.10;;;;;;;9.91;100.00;101741.88;5046575;28;20036;-65
2023/04/07 06:58:35;;;;;;;14.73;2.22;;;;;;;9.86;100.00;101736.69;5043962;28;20048;-64
2023/04/07 07:01:01;;;;;;;8.05;1.70;;;;;;;9.92;100.00;101750.63;5028076;28;20017;-64
2023/04/07 07:03:28;;;;;;;13.65;2.20;;;;;;;9.84;100.00;101749.00;5044505;28;20095;-64
2023/04/07 07:05:55;;;;;;;15.38;2.35;;;;;;;9.78;100.00;101748.25;5041824;28;20724;-64
2023/04/07 07:08:21;;;;;;;14.52;2.15;;;;;;;9.71;100.00;101763.25;5021579;28;20025;-65
2023/04/07 07:10:46;;;;;;;9.05;2.08;;;;;;;9.56;100.00;101770.50;5039103;28;20075;-65
2023/04/07 07:13:11;;;;;;;8.52;2.00;;;;;;;9.63;100.00;101775.66;5045059;28;20021;-64
2023/04/07 07:15:37;;;;;;;7.00;1.63;;;;;;;9.71;100.00;101773.78;5043901;28;20029;-63
2023/04/07 07:18:02;;;;;;;8.45;1.98;;;;;;;9.60;100.00;101772.19;5044980;28;20025;-65
2023/04/07 07:20:27;;;;;;;9.98;1.90;;;;;;;9.68;100.00;101773.81;5046316;28;20032;-64
2023/04/07 07:22:53;;;;;;;6.78;2.13;;;;;;;9.70;100.00;101772.03;5045314;28;20104;-64
2023/04/07 07:25:19;;;;;;;10.05;1.70;;;;;;;9.80;100.00;101772.75;5046006;28;20021;-63
2023/04/07 07:27:44;;;;;;;12.32;2.08;;;;;;;10.02;100.00;101775.06;5041757;28;20419;-62
2023/04/07 07:30:10;;;;;;;12.27;2.30;;;;;;;9.89;100.00;101774.38;5027831;28;20096;-64
2023/04/07 07:32:35;;;;;;;11.10;1.90;;;;;;;10.02;100.00;101778.56;5044931;28;20017;-63
2023/04/07 07:35:00;;;;;;;13.80;2.35;;;;;;;10.23;100.00;101776.44;5044422;28;20021;-64
2023/04/07 07:37:26;;;;;;;11.75;1.77;;;;;;;10.32;100.00;101785.94;5046377;28;20028;-64
2023/04/07 07:39:52;;;;;;;6.68;1.58;;;;;;;10.17;100.00;101781.84;5045834;28;20111;-64
2023/04/07 07:42:17;;;;;;;8.02;1.65;;;;;;;10.15;100.00;101786.25;5045630;28;20021;-63
2023/04/07 07:44:43;;;;;;;9.10;1.90;;;;;;;10.21;100.00;101786.16;5031841;28;20109;-63
2023/04/07 07:47:08;;;;;;;8.48;2.05;;;;;;;10.10;100.00;101784.56;5038608;28;20364;-63
2023/04/07 07:49:34;;;;;;;15.68;2.20;;;;;;;10.10;100.00;101797.75;5025473;28;20040;-64
2023/04/07 07:51:59;;;;;;;12.73;1.83;;;;;;;9.94;100.00;101796.25;5044303;28;20051;-64
2023/04/07 07:54:25;;;;;;;17.88;2.40;;;;;;;9.95;100.00;101795.34;5044716;28;20100;-64
2023/04/07 07:56:51;;;;;;;6.70;1.95;;;;;;;9.98;100.00;101796.19;5045629;28;20118;-63
2023/04/07 07:59:16;;;;;;;11.55;2.03;;;;;;;9.99;100.00;101797.91;5045320;28;20052;-63
2023/04/07 08:01:42;;;;;;;12.18;2.30;;;;;;;10.06;100.00;101803.09;5040566;28;20487;-64
2023/04/07 08:04:08;;;;;;;11.60;2.20;;;;;;;10.07;100.00;101803.06;5021380;28;20076;-63
2023/04/07 08:06:33;;;;;;;13.32;2.72;;;;;;;10.15;100.00;101802.94;5043349;28;20048;-64
2023/04/07 08:08:59;;;;;;;9.18;2.40;;;;;;;10.05;100.00;101814.53;5041743;28;20032;-66
2023/04/07 08:11:24;;;;;;;14.40;2.20;;;;;;;10.04;100.00;101813.63;5045783;28;20223;-64
2023/04/07 08:13:50;;;;;;;15.35;2.53;;;;;;;10.04;100.00;101811.00;5045615;28;20071;-65
2023/04/07 08:16:15;;;;;;;8.82;2.10;;;;;;;10.08;100.00;101814.44;5043831;28;20138;-65
2023/04/07 08:18:40;;;;;;;12.95;1.95;;;;;;;10.17;100.00;101816.94;5026377;28;20355;-65
2023/04/07 08:21:06;;;;;;;14.98;2.38;;;;;;;10.17;100.00;101813.44;5044653;28;20472;-63
2023/04/07 08:23:31;;;;;;;11.88;2.17;;;;;;;10.28;100.00;101821.16;5044926;28;20464;-64
2023/04/07 08:25:56;;;;;;;9.70;2.10;;;;;;;10.38;100.00;101828.00;5045156;28;20460;-62
2023/04/07 08:28:23;;;;;;;13.40;2.45;;;;;;;10.42;100.00;101826.19;5040355;28;20032;-63
2023/04/07 08:30:48;;;;;;;10.32;2.25;;;;;;;10.47;100.00;101830.50;5036018;28;20545;-64
2023/04/07 08:33:14;;;;;;;16.05;2.13;;;;;;;10.44;100.00;101827.91;5043471;28;20076;-62
2023/04/07 08:35:39;;;;;;;10.35;1.67;;;;;;;10.47;100.00;101829.63;5047471;28;20070;-65
2023/04/07 08:38:06;;;;;;;11.40;2.20;;;;;;;10.38;100.00;101832.41;5048857;28;20652;-65
2023/04/07 08:40:32;;;;;;;13.50;2.22;;;;;;;10.30;100.00;101833.38;5048955;28;20025;-62
2023/04/07 08:42:59;;;;;;;13.70;2.35;;;;;;;10.27;100.00;101835.22;5029833;28;20036;-64
2023/04/07 08:45:25;;;;;;;13.25;1.77;;;;;;;10.33;100.00;101841.25;5042528;28;20100;-66
2023/04/07 08:47:55;;;;;;;13.80;2.03;;;;;;;10.34;100.00;101842.13;5049170;28;20170;-64
2023/04/07 08:50:21;;;;;;;14.98;2.25;;;;;;;10.29;100.00;101834.28;5047281;28;20021;-64
2023/04/07 08:52:51;;;;;;;14.70;2.30;;;;;;;10.25;100.00;101832.63;5028084;28;20032;-63
2023/04/07 08:55:17;;;;;;;14.27;2.15;;;;;;;10.19;100.00;101849.41;5024340;28;20543;-63
2023/04/07 08:57:42;;;;;;;13.68;2.60;;;;;;;10.19;100.00;101843.25;5047147;28;20033;-65
2023/04/07 09:00:09;;;;;;;12.02;2.35;;;;;;;10.29;100.00;101842.19;5029286;28;20037;-64
2023/04/07 09:02:36;;;;;;;13.50;2.72;;;;;;;10.29;100.00;101836.94;5048111;28;20026;-64
2023/04/07 09:05:03;;;;;;;14.18;2.45;;;;;;;10.43;100.00;101846.38;5048191;28;20491;-65
2023/04/07 09:07:30;;;;;;;9.15;2.03;;;;;;;10.42;100.00;101842.00;5047272;28;20499;-63
2023/04/07 09:09:56;;;;;;;11.75;2.08;;;;;;;10.40;100.00;101847.31;5044403;28;20075;-63
2023/04/07 09:12:21;;;;;;;11.52;2.20;;;;;;;10.38;100.00;101861.41;5029657;28;20107;-64
2023/04/07 09:14:46;;;;;;;16.90;2.22;;;;;;;10.24;100.00;101862.50;5037457;28;20025;-63
2023/04/07 09:17:12;;;;;;;15.02;2.60;;;;;;;10.32;100.00;101860.59;5045583;28;20036;-64
2023/04/07 09:19:37;;;;;;;12.13;2.22;;;;;;;10.33;100.00;101857.06;5047959;28;20013;-64
2023/04/07 09:22:02;;;;;;;18.05;2.30;;;;;;;10.36;100.00;101853.53;5029441;28;20032;-64
2023/04/07 09:24:30;;;;;;;15.23;2.20;;;;;;;10.48;100.00;101855.13;5030009;28;20025;-64
2023/04/07 09:27:11;;;;;;;10.30;2.17;;;;;;;10.51;100.00;101857.69;5047391;28;20040;-64
2023/04/07 09:29:38;;;;;;;11.98;2.00;;;;;;;10.51;100.00;101856.81;5042422;28;20048;-64
2023/04/07 09:32:04;;;;;;;13.68;2.10;;;;;;;10.50;100.00;101863.84;5024853;28;20111;-63
2023/04/07 09:34:32;;;;;;;11.55;2.35;;;;;;;10.53;100.00;101866.44;5046118;28;20017;-64
2023/04/07 09:36:58;;;;;;;9.33;2.23;;;;;;;10.69;100.00;101868.81;5047537;28;20013;-63
2023/04/07 09:39:24;;;;;;;9.93;2.30;;;;;;;10.84;100.00;101871.16;5029025;28;20013;-65
2023/04/07 09:41:50;;;;;;;11.13;2.15;;;;;;;10.85;100.00;101870.28;5047291;28;20036;-62
2023/04/07 09:44:16;;;;;;;10.00;2.53;;;;;;;10.69;100.00;101880.19;5035386;28;20032;-63
2023/04/07 09:46:56;;;;;;;10.20;2.38;;;;;;;10.69;100.00;101874.06;5039156;28;20017;-63
2023/04/07 09:49:22;;;;;;;12.70;2.60;;;;;;;10.79;100.00;101875.66;5036639;28;20383;-63
2023/04/07 09:51:59;;;;;;;11.05;1.88;;;;;;;10.82;100.00;101875.59;5029549;28;20072;-63
2023/04/07 09:54:36;;;;;;;14.98;2.40;;;;;;;10.89;100.00;101875.50;5019520;28;20036;-64
2023/04/07 09:57:02;;;;;;;10.15;1.67;;;;;;;10.70;100.00;101881.06;5037312;28;20082;-65
2023/04/07 09:59:30;;;;;;;8.60;2.55;;;;;;;10.74;100.00;101872.22;5045816;28;20029;-65
2023/04/07 10:01:55;;;;;;;9.65;2.30;;;;;;;10.86;100.00;101876.38;5027380;28;20479;-65
2023/04/07 10:04:21;;;;;;;15.73;2.50;;;;;;;10.83;100.00;101882.59;5035012;28;20056;-63
2023/04/07 10:06:47;;;;;;;8.63;1.77;;;;;;;10.85;100.00;101886.09;5028150;28;20101;-65
2023/04/07 10:09:13;;;;;;;12.88;2.13;;;;;;;10.81;100.00;101881.75;5007855;28;20018;-64
2023/04/07 10:11:40;;;;;;;13.70;2.05;;;;;;;10.89;100.00;101878.13;5026438;28;20037;-63
2023/04/07 10:14:05;;;;;;;12.52;2.78;;;;;;;11.02;100.00;101877.00;5022458;28;20035;-62
2023/04/07 10:16:31;;;;;;;9.75;1.95;;;;;;;11.15;100.00;101887.28;5028292;28;20013;-65
2023/04/07 10:18:57;;;;;;;13.75;2.25;;;;;;;11.06;100.00;101876.03;5046749;28;20031;-64
2023/04/07 10:21:22;;;;;;;12.20;2.40;;;;;;;10.91;100.00;101886.84;5027891;28;20538;-63
2023/04/07 10:23:48;;;;;;;13.88;2.05;;;;;;;10.90;100.00;101893.91;5014093;28;20033;-64
2023/04/07 10:26:19;;;;;;;14.88;2.40;;;;;;;10.97;100.00;101894.66;5025159;28;20032;-64
2023/04/07 10:28:48;;;;;;;16.83;2.47;;;;;;;10.85;100.00;101890.47;5027055;28;20021;-63
2023/04/07 10:31:15;;;;;;;14.13;2.67;;;;;;;10.89;100.00;101896.59;5027575;28;20017;-64
2023/04/07 10:33:48;;;;;;;10.00;2.22;;;;;;;10.94;100.00;101897.34;5028535;28;20029;-64
2023/04/07 10:36:14;;;;;;;10.82;2.65;;;;;;;11.14;100.00;101896.13;5033711;28;20108;-65
2023/04/07 10:38:41;;;;;;;11.07;2.88;;;;;;;11.14;100.00;101902.28;5041613;28;20120;-65
2023/04/07 10:41:36;;;;;;;15.75;2.80;;;;;;;11.20;100.00;101911.81;5045190;28;20545;-63
2023/04/07 10:44:02;;;;;;;17.90;2.42;;;;;;;11.02;100.00;101907.75;5038407;28;20040;-65
2023/04/07 10:46:47;;;;;;;11.55;2.20;;;;;;;10.95;100.00;101902.59;5043083;28;20052;-63
2023/04/07 10:49:13;;;;;;;13.57;2.10;;;;;;;10.93;100.00;101906.16;5044188;28;20031;-63
2023/04/07 10:51:38;;;;;;;13.13;2.70;;;;;;;10.89;100.00;101905.34;5042923;28;20025;-62
2023/04/07 10:54:25;;;;;;;11.70;2.72;;;;;;;11.21;100.00;101901.25;5026842;28;20040;-63
2023/04/07 10:57:02;;;;;;;14.70;2.55;;;;;;;11.35;100.00;101908.88;5044636;28;20514;-63
2023/04/07 10:59:28;;;;;;;13.73;2.55;;;;;;;11.50;100.00;101909.47;5044066;28;20029;-62
2023/04/07 11:02:16;;;;;;;15.88;2.33;;;;;;;11.62;100.00;101913.63;5043461;28;20108;-64
2023/04/07 11:04:43;;;;;;;15.55;2.53;;;;;;;11.38;100.00;101919.38;5045069;28;20088;-63
2023/04/07 11:07:09;;;;;;;13.80;2.85;;;;;;;11.22;100.00;101925.84;5045336;28;20036;-63
2023/04/07 11:09:35;;;;;;;15.70;2.63;;;;;;;11.14;100.00;101920.72;5038636;28;20017;-65
2023/04/07 11:12:00;;;;;;;13.82;2.30;;;;;;;11.19;100.00;101912.72;5031545;28;20037;-65
2023/04/07 11:14:27;;;;;;;15.70;2.30;;;;;;;11.08;100.00;101924.31;5027178;28;20029;-63